Airfield :
LOGIN :

Register | Disclaimer

   EN    FR    IT 

 










Legend :    VFR   Marginal VFR   IFR   Intensive IFR   Very Intensive IFR
Visi :
Ceiling :
>= 8 km
>= 3000ft
5 to 8 km
1000 to 3000 ft
1500m to 5 km
500 to 1000 ft
800 to 1500m
200 to 500 ft
< 800m
< 200 ft
Symbols :   Thunderstorms  Fog  Heavy snow  Heavy precipitations  Wind > 20 kt
SIGMETs :     Misc.  Thunderstorms  Icing  Turbulence  Mountain Waves  Volcanic Ashes






- Airport Elevation : 408 ft
- IATA code : FKB


EDSB - Karlsruhe Baden Baden

CURRENT METAR :
  • 120450Z 21006KT 9999 -RA FEW030 BKN034 OVC045 04/03 Q1005

EXPIRED METARs :
  • 120420Z 22005KT 9999 BKN036 BKN042 OVC060 04/03 Q1005
  • 120350Z 22004KT 9999 FEW033 BKN039 OVC046 04/03 Q1005
  • 120320Z AUTO 21005KT 9999 BKN035/// BKN045/// BKN053/// 04/03 Q1006
  • 120250Z AUTO 22006KT 9999 BKN036/// 04/03 Q1006
  • 120220Z AUTO 21005KT 9999 OVC037/// 04/03 Q1006

TAF AMD TAF EDSB
Valid from the 11 at 19:00 until the 12 at 18:00 UTC


111943Z 1119/1218 19005KT 9000 SCT015 BKN025
TEMPO 1119/1202 21011KT 4500 RADZ BKN009 OVC012
PROB30
TEMPO 1202/1208 3000 DZRA BKN010
BECMG 1205/1208 21010KT
PROB30
TEMPO 1208/1212 4000 SHRA BKN012TCU



MET'MAP, your aeronautical weather chart ! - Copyright ORBIFLY December 2007 - Disclaimer

ORBIFLY MET'MAP TEAM :

Programming & Development : Alexandra Zaïnal
Concept & original design : Baudouin d'Aumeries
Assistance for programming : Marc-Olivier Méhu
Technical & hardware support : Manuel Goepfert

Contact : metmap@orbifly.com




SOURCES & CREDITS :

   NOAA